sensor_id;sensor_type;location;lat;lon;timestamp;P1;durP1;ratioP1;P2;durP2;ratioP2
43883;SDS011;29544;52.018;5.810;2022-09-12T00:02:21;2.07;;;1.80;;
43883;SDS011;29544;52.018;5.810;2022-09-12T00:04:46;3.63;;;2.20;;
43883;SDS011;29544;52.018;5.810;2022-09-12T00:07:12;2.70;;;2.17;;
43883;SDS011;29544;52.018;5.810;2022-09-12T00:09:38;3.43;;;2.30;;
43883;SDS011;29544;52.018;5.810;2022-09-12T00:12:03;2.97;;;2.00;;
43883;SDS011;29544;52.018;5.810;2022-09-12T00:14:29;3.50;;;2.22;;
43883;SDS011;29544;52.018;5.810;2022-09-12T00:16:58;3.05;;;1.80;;
43883;SDS011;29544;52.018;5.810;2022-09-12T00:19:25;3.55;;;2.15;;
43883;SDS011;29544;52.018;5.810;2022-09-12T00:21:54;2.80;;;2.13;;
43883;SDS011;29544;52.018;5.810;2022-09-12T00:24:19;2.20;;;1.90;;
43883;SDS011;29544;52.018;5.810;2022-09-12T00:26:45;3.30;;;2.13;;
43883;SDS011;29544;52.018;5.810;2022-09-12T00:29:15;3.07;;;1.97;;
43883;SDS011;29544;52.018;5.810;2022-09-12T00:31:42;2.95;;;2.25;;
43883;SDS011;29544;52.018;5.810;2022-09-12T00:34:08;3.45;;;1.70;;
43883;SDS011;29544;52.018;5.810;2022-09-12T00:36:34;3.33;;;1.98;;
43883;SDS011;29544;52.018;5.810;2022-09-12T00:39:00;3.28;;;2.38;;
43883;SDS011;29544;52.018;5.810;2022-09-12T00:41:38;3.55;;;2.33;;
43883;SDS011;29544;52.018;5.810;2022-09-12T00:47:33;3.70;;;1.70;;
43883;SDS011;29544;52.018;5.810;2022-09-12T00:50:09;3.38;;;2.20;;
43883;SDS011;29544;52.018;5.810;2022-09-12T00:52:43;2.05;;;1.85;;
43883;SDS011;29544;52.018;5.810;2022-09-12T00:55:16;2.67;;;2.03;;
43883;SDS011;29544;52.018;5.810;2022-09-12T00:57:56;2.15;;;1.95;;
43883;SDS011;29544;52.018;5.810;2022-09-12T01:00:27;2.90;;;1.80;;
43883;SDS011;29544;52.018;5.810;2022-09-12T01:02:55;4.05;;;2.05;;
43883;SDS011;29544;52.018;5.810;2022-09-12T01:05:24;2.13;;;1.80;;
43883;SDS011;29544;52.018;5.810;2022-09-12T01:07:53;5.82;;;2.10;;
43883;SDS011;29544;52.018;5.810;2022-09-12T01:10:20;3.08;;;2.25;;
43883;SDS011;29544;52.018;5.810;2022-09-12T01:12:47;4.63;;;2.47;;
43883;SDS011;29544;52.018;5.810;2022-09-12T01:15:13;2.42;;;1.80;;
43883;SDS011;29544;52.018;5.810;2022-09-12T01:17:48;3.97;;;2.08;;
43883;SDS011;29544;52.018;5.810;2022-09-12T01:22:59;3.13;;;1.90;;
43883;SDS011;29544;52.018;5.810;2022-09-12T01:31:36;3.47;;;2.00;;
43883;SDS011;29544;52.018;5.810;2022-09-12T01:34:09;3.33;;;2.00;;
43883;SDS011;29544;52.018;5.810;2022-09-12T01:42:09;2.97;;;2.00;;
43883;SDS011;29544;52.018;5.810;2022-09-12T01:45:06;3.92;;;1.92;;
43883;SDS011;29544;52.018;5.810;2022-09-12T01:47:41;3.20;;;2.15;;
43883;SDS011;29544;52.018;5.810;2022-09-12T01:50:27;2.80;;;2.00;;
43883;SDS011;29544;52.018;5.810;2022-09-12T01:53:00;3.08;;;2.13;;
43883;SDS011;29544;52.018;5.810;2022-09-12T01:55:31;3.20;;;2.17;;
43883;SDS011;29544;52.018;5.810;2022-09-12T02:00:46;2.53;;;1.80;;
43883;SDS011;29544;52.018;5.810;2022-09-12T02:03:30;4.47;;;2.00;;
43883;SDS011;29544;52.018;5.810;2022-09-12T02:06:05;3.28;;;2.00;;
43883;SDS011;29544;52.018;5.810;2022-09-12T02:09:00;2.47;;;1.80;;
43883;SDS011;29544;52.018;5.810;2022-09-12T02:11:30;2.88;;;2.15;;
43883;SDS011;29544;52.018;5.810;2022-09-12T02:14:03;3.42;;;2.35;;
43883;SDS011;29544;52.018;5.810;2022-09-12T02:16:39;4.57;;;2.00;;
43883;SDS011;29544;52.018;5.810;2022-09-12T02:19:09;3.85;;;2.30;;
43883;SDS011;29544;52.018;5.810;2022-09-12T02:21:40;2.65;;;1.70;;
43883;SDS011;29544;52.018;5.810;2022-09-12T02:24:12;2.92;;;2.28;;
43883;SDS011;29544;52.018;5.810;2022-09-12T02:26:41;2.83;;;2.00;;
43883;SDS011;29544;52.018;5.810;2022-09-12T02:29:09;2.17;;;1.88;;
43883;SDS011;29544;52.018;5.810;2022-09-12T02:31:44;3.50;;;2.17;;
43883;SDS011;29544;52.018;5.810;2022-09-12T02:34:25;3.45;;;2.03;;
43883;SDS011;29544;52.018;5.810;2022-09-12T02:37:17;4.13;;;2.28;;
43883;SDS011;29544;52.018;5.810;2022-09-12T02:39:51;2.78;;;1.83;;
43883;SDS011;29544;52.018;5.810;2022-09-12T02:42:19;4.63;;;2.10;;
43883;SDS011;29544;52.018;5.810;2022-09-12T02:44:45;4.53;;;2.38;;
43883;SDS011;29544;52.018;5.810;2022-09-12T02:47:17;3.15;;;2.30;;
43883;SDS011;29544;52.018;5.810;2022-09-12T02:50:02;2.80;;;2.08;;
43883;SDS011;29544;52.018;5.810;2022-09-12T02:52:29;3.38;;;2.08;;
43883;SDS011;29544;52.018;5.810;2022-09-12T02:54:56;3.08;;;1.90;;
43883;SDS011;29544;52.018;5.810;2022-09-12T02:57:23;4.55;;;2.08;;
43883;SDS011;29544;52.018;5.810;2022-09-12T02:59:53;3.13;;;1.80;;
43883;SDS011;29544;52.018;5.810;2022-09-12T03:02:24;4.05;;;2.00;;
43883;SDS011;29544;52.018;5.810;2022-09-12T03:05:36;3.40;;;2.22;;
43883;SDS011;29544;52.018;5.810;2022-09-12T03:08:09;4.43;;;1.95;;
43883;SDS011;29544;52.018;5.810;2022-09-12T03:10:50;4.25;;;2.03;;
43883;SDS011;29544;52.018;5.810;2022-09-12T03:18:57;4.55;;;2.10;;
43883;SDS011;29544;52.018;5.810;2022-09-12T03:24:44;3.00;;;1.80;;
43883;SDS011;29544;52.018;5.810;2022-09-12T03:28:01;4.22;;;2.22;;
43883;SDS011;29544;52.018;5.810;2022-09-12T03:30:10;2.75;;;1.98;;
43883;SDS011;29544;52.018;5.810;2022-09-12T03:32:54;4.68;;;1.92;;
43883;SDS011;29544;52.018;5.810;2022-09-12T03:35:21;3.50;;;1.88;;
43883;SDS011;29544;52.018;5.810;2022-09-12T03:37:48;3.55;;;1.90;;
43883;SDS011;29544;52.018;5.810;2022-09-12T03:40:14;2.45;;;2.00;;
43883;SDS011;29544;52.018;5.810;2022-09-12T03:42:40;3.15;;;2.22;;
43883;SDS011;29544;52.018;5.810;2022-09-12T03:45:07;3.63;;;2.22;;
43883;SDS011;29544;52.018;5.810;2022-09-12T03:47:33;3.30;;;2.00;;
43883;SDS011;29544;52.018;5.810;2022-09-12T03:49:59;5.28;;;2.60;;
43883;SDS011;29544;52.018;5.810;2022-09-12T03:52:25;3.60;;;2.20;;
43883;SDS011;29544;52.018;5.810;2022-09-12T03:54:51;4.10;;;2.07;;
43883;SDS011;29544;52.018;5.810;2022-09-12T03:57:16;3.57;;;2.03;;
43883;SDS011;29544;52.018;5.810;2022-09-12T03:59:42;4.00;;;2.20;;
43883;SDS011;29544;52.018;5.810;2022-09-12T04:02:08;3.83;;;1.97;;
43883;SDS011;29544;52.018;5.810;2022-09-12T04:04:36;3.78;;;2.30;;
43883;SDS011;29544;52.018;5.810;2022-09-12T04:07:02;6.03;;;2.23;;
43883;SDS011;29544;52.018;5.810;2022-09-12T04:09:28;4.53;;;1.85;;
43883;SDS011;29544;52.018;5.810;2022-09-12T04:11:54;5.27;;;2.50;;
43883;SDS011;29544;52.018;5.810;2022-09-12T04:14:19;4.10;;;2.50;;
43883;SDS011;29544;52.018;5.810;2022-09-12T04:16:45;3.90;;;2.23;;
43883;SDS011;29544;52.018;5.810;2022-09-12T04:19:10;6.13;;;2.33;;
43883;SDS011;29544;52.018;5.810;2022-09-12T04:21:36;2.97;;;1.67;;
43883;SDS011;29544;52.018;5.810;2022-09-12T04:24:01;2.03;;;1.77;;
43883;SDS011;29544;52.018;5.810;2022-09-12T04:26:27;3.53;;;2.17;;
43883;SDS011;29544;52.018;5.810;2022-09-12T04:28:53;2.35;;;2.13;;
43883;SDS011;29544;52.018;5.810;2022-09-12T04:31:21;5.68;;;2.00;;
43883;SDS011;29544;52.018;5.810;2022-09-12T04:33:54;4.18;;;2.35;;
43883;SDS011;29544;52.018;5.810;2022-09-12T04:36:24;4.75;;;2.00;;
43883;SDS011;29544;52.018;5.810;2022-09-12T04:38:51;3.67;;;2.30;;
43883;SDS011;29544;52.018;5.810;2022-09-12T04:43:50;5.45;;;2.63;;
43883;SDS011;29544;52.018;5.810;2022-09-12T04:46:17;6.20;;;2.75;;
43883;SDS011;29544;52.018;5.810;2022-09-12T04:48:44;7.75;;;2.60;;
43883;SDS011;29544;52.018;5.810;2022-09-12T04:53:38;4.53;;;2.60;;
43883;SDS011;29544;52.018;5.810;2022-09-12T04:56:05;4.47;;;2.42;;
43883;SDS011;29544;52.018;5.810;2022-09-12T04:58:33;2.50;;;2.08;;
43883;SDS011;29544;52.018;5.810;2022-09-12T05:01:08;3.63;;;2.50;;
43883;SDS011;29544;52.018;5.810;2022-09-12T05:03:36;3.38;;;2.50;;
43883;SDS011;29544;52.018;5.810;2022-09-12T05:06:06;3.85;;;2.40;;
43883;SDS011;29544;52.018;5.810;2022-09-12T05:08:33;5.80;;;2.33;;
43883;SDS011;29544;52.018;5.810;2022-09-12T05:11:02;3.53;;;2.58;;
43883;SDS011;29544;52.018;5.810;2022-09-12T05:13:35;3.40;;;2.50;;
43883;SDS011;29544;52.018;5.810;2022-09-12T05:16:02;3.92;;;2.53;;
43883;SDS011;29544;52.018;5.810;2022-09-12T05:18:30;5.40;;;2.83;;
43883;SDS011;29544;52.018;5.810;2022-09-12T05:21:00;4.75;;;3.05;;
43883;SDS011;29544;52.018;5.810;2022-09-12T05:23:28;4.57;;;3.10;;
43883;SDS011;29544;52.018;5.810;2022-09-12T05:25:55;4.20;;;2.65;;
43883;SDS011;29544;52.018;5.810;2022-09-12T05:28:22;4.72;;;2.70;;
43883;SDS011;29544;52.018;5.810;2022-09-12T05:30:59;5.15;;;2.80;;
43883;SDS011;29544;52.018;5.810;2022-09-12T05:33:29;4.07;;;2.90;;
43883;SDS011;29544;52.018;5.810;2022-09-12T05:35:56;6.63;;;2.85;;
43883;SDS011;29544;52.018;5.810;2022-09-12T05:38:21;4.80;;;2.97;;
43883;SDS011;29544;52.018;5.810;2022-09-12T05:40:50;5.13;;;3.15;;
43883;SDS011;29544;52.018;5.810;2022-09-12T05:43:16;5.70;;;3.10;;
43883;SDS011;29544;52.018;5.810;2022-09-12T05:45:42;4.00;;;3.03;;
43883;SDS011;29544;52.018;5.810;2022-09-12T05:48:07;3.67;;;2.90;;
43883;SDS011;29544;52.018;5.810;2022-09-12T05:50:33;5.60;;;3.38;;
43883;SDS011;29544;52.018;5.810;2022-09-12T05:52:59;5.33;;;3.40;;
43883;SDS011;29544;52.018;5.810;2022-09-12T05:55:24;5.60;;;3.35;;
43883;SDS011;29544;52.018;5.810;2022-09-12T05:57:50;5.63;;;3.43;;
43883;SDS011;29544;52.018;5.810;2022-09-12T06:00:16;5.70;;;3.27;;
43883;SDS011;29544;52.018;5.810;2022-09-12T06:02:43;5.18;;;3.70;;
43883;SDS011;29544;52.018;5.810;2022-09-12T06:05:08;4.40;;;3.40;;
43883;SDS011;29544;52.018;5.810;2022-09-12T06:07:34;5.07;;;3.47;;
43883;SDS011;29544;52.018;5.810;2022-09-12T06:10:00;5.53;;;3.30;;
43883;SDS011;29544;52.018;5.810;2022-09-12T06:12:29;5.10;;;3.58;;
43883;SDS011;29544;52.018;5.810;2022-09-12T06:14:55;6.65;;;3.60;;
43883;SDS011;29544;52.018;5.810;2022-09-12T06:17:21;8.40;;;3.70;;
43883;SDS011;29544;52.018;5.810;2022-09-12T06:19:46;5.40;;;3.90;;
43883;SDS011;29544;52.018;5.810;2022-09-12T06:22:14;4.95;;;3.42;;
43883;SDS011;29544;52.018;5.810;2022-09-12T06:24:40;5.37;;;3.53;;
43883;SDS011;29544;52.018;5.810;2022-09-12T06:27:05;6.10;;;4.17;;
43883;SDS011;29544;52.018;5.810;2022-09-12T06:29:31;6.80;;;4.00;;
43883;SDS011;29544;52.018;5.810;2022-09-12T06:31:57;5.87;;;4.70;;
43883;SDS011;29544;52.018;5.810;2022-09-12T06:34:22;6.25;;;4.10;;
43883;SDS011;29544;52.018;5.810;2022-09-12T06:36:48;5.68;;;4.00;;
43883;SDS011;29544;52.018;5.810;2022-09-12T06:39:15;4.90;;;3.95;;
43883;SDS011;29544;52.018;5.810;2022-09-12T06:41:43;7.20;;;3.90;;
43883;SDS011;29544;52.018;5.810;2022-09-12T06:44:13;7.22;;;4.10;;
43883;SDS011;29544;52.018;5.810;2022-09-12T06:46:40;12.27;;;4.22;;
43883;SDS011;29544;52.018;5.810;2022-09-12T06:49:06;8.02;;;4.75;;
43883;SDS011;29544;52.018;5.810;2022-09-12T06:51:32;10.13;;;5.43;;
43883;SDS011;29544;52.018;5.810;2022-09-12T06:53:58;23.67;;;4.80;;
43883;SDS011;29544;52.018;5.810;2022-09-12T06:56:24;10.30;;;5.13;;
43883;SDS011;29544;52.018;5.810;2022-09-12T06:58:51;9.98;;;5.43;;
43883;SDS011;29544;52.018;5.810;2022-09-12T07:01:19;9.05;;;5.30;;
43883;SDS011;29544;52.018;5.810;2022-09-12T07:03:46;9.55;;;5.57;;
43883;SDS011;29544;52.018;5.810;2022-09-12T07:06:18;9.25;;;5.82;;
43883;SDS011;29544;52.018;5.810;2022-09-12T07:08:45;9.07;;;6.00;;
43883;SDS011;29544;52.018;5.810;2022-09-12T07:11:13;11.13;;;6.38;;
43883;SDS011;29544;52.018;5.810;2022-09-12T07:13:39;13.25;;;7.25;;
43883;SDS011;29544;52.018;5.810;2022-09-12T07:16:07;11.95;;;7.35;;
43883;SDS011;29544;52.018;5.810;2022-09-12T07:18:34;11.43;;;7.40;;
43883;SDS011;29544;52.018;5.810;2022-09-12T07:21:02;12.73;;;7.95;;
43883;SDS011;29544;52.018;5.810;2022-09-12T07:23:28;12.00;;;7.45;;
43883;SDS011;29544;52.018;5.810;2022-09-12T07:25:55;13.97;;;8.37;;
43883;SDS011;29544;52.018;5.810;2022-09-12T07:28:22;12.13;;;7.72;;
43883;SDS011;29544;52.018;5.810;2022-09-12T07:30:49;14.98;;;8.32;;
43883;SDS011;29544;52.018;5.810;2022-09-12T07:33:17;16.08;;;8.93;;
43883;SDS011;29544;52.018;5.810;2022-09-12T07:35:46;15.35;;;9.40;;
43883;SDS011;29544;52.018;5.810;2022-09-12T07:38:12;11.87;;;8.73;;
43883;SDS011;29544;52.018;5.810;2022-09-12T07:40:37;14.23;;;9.32;;
43883;SDS011;29544;52.018;5.810;2022-09-12T07:43:03;16.37;;;11.57;;
43883;SDS011;29544;52.018;5.810;2022-09-12T07:45:29;15.27;;;9.45;;
43883;SDS011;29544;52.018;5.810;2022-09-12T07:47:55;15.30;;;10.10;;
43883;SDS011;29544;52.018;5.810;2022-09-12T07:50:20;16.13;;;10.10;;
43883;SDS011;29544;52.018;5.810;2022-09-12T07:52:46;15.73;;;10.73;;
43883;SDS011;29544;52.018;5.810;2022-09-12T07:55:11;19.23;;;10.47;;
43883;SDS011;29544;52.018;5.810;2022-09-12T07:57:37;14.80;;;9.93;;
43883;SDS011;29544;52.018;5.810;2022-09-12T08:00:03;15.03;;;10.10;;
43883;SDS011;29544;52.018;5.810;2022-09-12T08:02:29;15.98;;;10.13;;
43883;SDS011;29544;52.018;5.810;2022-09-12T08:04:55;16.00;;;10.30;;
43883;SDS011;29544;52.018;5.810;2022-09-12T08:07:21;14.70;;;10.53;;
43883;SDS011;29544;52.018;5.810;2022-09-12T08:09:46;13.10;;;9.37;;
43883;SDS011;29544;52.018;5.810;2022-09-12T08:12:13;18.08;;;10.88;;
43883;SDS011;29544;52.018;5.810;2022-09-12T08:14:40;13.65;;;9.70;;
43883;SDS011;29544;52.018;5.810;2022-09-12T08:17:05;13.30;;;10.50;;
43883;SDS011;29544;52.018;5.810;2022-09-12T08:19:31;13.53;;;9.50;;
43883;SDS011;29544;52.018;5.810;2022-09-12T08:21:56;15.33;;;10.07;;
43883;SDS011;29544;52.018;5.810;2022-09-12T08:24:22;14.77;;;10.73;;
43883;SDS011;29544;52.018;5.810;2022-09-12T08:29:14;15.48;;;10.52;;
43883;SDS011;29544;52.018;5.810;2022-09-12T08:31:40;16.73;;;9.98;;
43883;SDS011;29544;52.018;5.810;2022-09-12T08:34:06;13.32;;;9.13;;
43883;SDS011;29544;52.018;5.810;2022-09-12T08:36:33;16.80;;;11.05;;
43883;SDS011;29544;52.018;5.810;2022-09-12T08:44:26;13.00;;;8.95;;
43883;SDS011;29544;52.018;5.810;2022-09-12T08:47:13;12.80;;;9.25;;
43883;SDS011;29544;52.018;5.810;2022-09-12T08:57:57;12.82;;;8.98;;
43883;SDS011;29544;52.018;5.810;2022-09-12T09:00:26;11.55;;;9.07;;
43883;SDS011;29544;52.018;5.810;2022-09-12T09:08:54;13.10;;;8.80;;
43883;SDS011;29544;52.018;5.810;2022-09-12T09:17:10;10.57;;;7.60;;
43883;SDS011;29544;52.018;5.810;2022-09-12T09:19:44;13.00;;;7.88;;
43883;SDS011;29544;52.018;5.810;2022-09-12T09:22:15;12.52;;;8.05;;
43883;SDS011;29544;52.018;5.810;2022-09-12T09:24:52;11.63;;;7.50;;
43883;SDS011;29544;52.018;5.810;2022-09-12T09:27:26;10.18;;;7.75;;
43883;SDS011;29544;52.018;5.810;2022-09-12T09:29:57;13.82;;;8.05;;
43883;SDS011;29544;52.018;5.810;2022-09-12T09:32:25;12.77;;;8.07;;
43883;SDS011;29544;52.018;5.810;2022-09-12T09:35:00;10.10;;;7.38;;
43883;SDS011;29544;52.018;5.810;2022-09-12T09:37:41;10.75;;;7.88;;
43883;SDS011;29544;52.018;5.810;2022-09-12T09:40:23;11.23;;;7.18;;
43883;SDS011;29544;52.018;5.810;2022-09-12T09:45:44;10.25;;;7.25;;
43883;SDS011;29544;52.018;5.810;2022-09-12T09:48:29;11.40;;;7.60;;
43883;SDS011;29544;52.018;5.810;2022-09-12T09:51:01;12.38;;;7.88;;
43883;SDS011;29544;52.018;5.810;2022-09-12T09:53:47;9.35;;;6.95;;
43883;SDS011;29544;52.018;5.810;2022-09-12T09:56:24;8.77;;;6.53;;
43883;SDS011;29544;52.018;5.810;2022-09-12T09:58:55;10.65;;;7.10;;
43883;SDS011;29544;52.018;5.810;2022-09-12T10:01:21;9.80;;;6.67;;
43883;SDS011;29544;52.018;5.810;2022-09-12T10:03:55;9.25;;;6.20;;
43883;SDS011;29544;52.018;5.810;2022-09-12T10:06:22;8.73;;;6.30;;
43883;SDS011;29544;52.018;5.810;2022-09-12T10:09:09;9.60;;;6.15;;
43883;SDS011;29544;52.018;5.810;2022-09-12T10:11:43;7.05;;;5.25;;
43883;SDS011;29544;52.018;5.810;2022-09-12T10:16:55;11.85;;;6.13;;
43883;SDS011;29544;52.018;5.810;2022-09-12T10:19:23;8.13;;;5.53;;
43883;SDS011;29544;52.018;5.810;2022-09-12T10:21:58;7.78;;;5.40;;
43883;SDS011;29544;52.018;5.810;2022-09-12T10:26:58;10.45;;;5.85;;
43883;SDS011;29544;52.018;5.810;2022-09-12T10:29:33;7.65;;;5.63;;
43883;SDS011;29544;52.018;5.810;2022-09-12T10:32:05;8.10;;;5.10;;
43883;SDS011;29544;52.018;5.810;2022-09-12T10:34:33;8.25;;;5.28;;
43883;SDS011;29544;52.018;5.810;2022-09-12T10:37:06;9.10;;;5.63;;
43883;SDS011;29544;52.018;5.810;2022-09-12T10:39:34;8.55;;;5.45;;
43883;SDS011;29544;52.018;5.810;2022-09-12T10:42:02;7.18;;;5.07;;
43883;SDS011;29544;52.018;5.810;2022-09-12T10:44:30;8.10;;;5.80;;
43883;SDS011;29544;52.018;5.810;2022-09-12T10:46:57;8.13;;;6.03;;
43883;SDS011;29544;52.018;5.810;2022-09-12T10:49:30;9.10;;;5.93;;
43883;SDS011;29544;52.018;5.810;2022-09-12T10:54:47;8.02;;;5.18;;
43883;SDS011;29544;52.018;5.810;2022-09-12T10:58:15;8.00;;;5.70;;
43883;SDS011;29544;52.018;5.810;2022-09-12T11:00:26;8.20;;;5.07;;
43883;SDS011;29544;52.018;5.810;2022-09-12T11:03:04;8.77;;;5.45;;
43883;SDS011;29544;52.018;5.810;2022-09-12T11:05:48;7.72;;;4.82;;
43883;SDS011;29544;52.018;5.810;2022-09-12T11:09:00;6.80;;;5.18;;
43883;SDS011;29544;52.018;5.810;2022-09-12T11:11:24;6.43;;;4.72;;
43883;SDS011;29544;52.018;5.810;2022-09-12T11:14:06;7.20;;;4.95;;
43883;SDS011;29544;52.018;5.810;2022-09-12T11:16:47;6.32;;;4.38;;
43883;SDS011;29544;52.018;5.810;2022-09-12T11:19:32;5.05;;;4.20;;
43883;SDS011;29544;52.018;5.810;2022-09-12T11:25:04;6.57;;;4.18;;
43883;SDS011;29544;52.018;5.810;2022-09-12T11:30:19;8.30;;;4.03;;
43883;SDS011;29544;52.018;5.810;2022-09-12T11:35:33;5.00;;;3.35;;
43883;SDS011;29544;52.018;5.810;2022-09-12T11:40:57;6.55;;;3.35;;
43883;SDS011;29544;52.018;5.810;2022-09-12T11:46:25;4.55;;;3.00;;
43883;SDS011;29544;52.018;5.810;2022-09-12T11:51:32;4.70;;;3.10;;
43883;SDS011;29544;52.018;5.810;2022-09-12T11:56:36;4.32;;;2.97;;
43883;SDS011;29544;52.018;5.810;2022-09-12T11:59:11;5.50;;;2.63;;
43883;SDS011;29544;52.018;5.810;2022-09-12T12:01:53;4.65;;;2.78;;
43883;SDS011;29544;52.018;5.810;2022-09-12T12:04:24;4.50;;;2.83;;
43883;SDS011;29544;52.018;5.810;2022-09-12T12:07:05;3.53;;;2.90;;
43883;SDS011;29544;52.018;5.810;2022-09-12T12:09:34;5.68;;;2.50;;
43883;SDS011;29544;52.018;5.810;2022-09-12T12:12:07;5.10;;;2.80;;
43883;SDS011;29544;52.018;5.810;2022-09-12T12:14:43;6.55;;;2.55;;
43883;SDS011;29544;52.018;5.810;2022-09-12T12:17:12;5.75;;;2.75;;
43883;SDS011;29544;52.018;5.810;2022-09-12T12:19:39;4.30;;;2.67;;
43883;SDS011;29544;52.018;5.810;2022-09-12T12:22:21;5.03;;;2.70;;
43883;SDS011;29544;52.018;5.810;2022-09-12T12:24:52;3.60;;;2.63;;
43883;SDS011;29544;52.018;5.810;2022-09-12T12:27:50;3.88;;;2.53;;
43883;SDS011;29544;52.018;5.810;2022-09-12T12:38:00;4.47;;;2.37;;
43883;SDS011;29544;52.018;5.810;2022-09-12T12:40:27;4.05;;;2.35;;
43883;SDS011;29544;52.018;5.810;2022-09-12T12:48:06;2.40;;;2.05;;
43883;SDS011;29544;52.018;5.810;2022-09-12T12:50:34;2.88;;;2.15;;
43883;SDS011;29544;52.018;5.810;2022-09-12T12:55:48;2.83;;;2.00;;
43883;SDS011;29544;52.018;5.810;2022-09-12T12:58:32;3.60;;;2.30;;
43883;SDS011;29544;52.018;5.810;2022-09-12T13:03:34;4.63;;;2.22;;
43883;SDS011;29544;52.018;5.810;2022-09-12T13:06:02;3.42;;;2.38;;
43883;SDS011;29544;52.018;5.810;2022-09-12T13:08:32;3.03;;;2.00;;
43883;SDS011;29544;52.018;5.810;2022-09-12T13:11:13;3.50;;;1.98;;
43883;SDS011;29544;52.018;5.810;2022-09-12T13:13:44;3.05;;;2.03;;
43883;SDS011;29544;52.018;5.810;2022-09-12T13:16:37;3.72;;;2.13;;
43883;SDS011;29544;52.018;5.810;2022-09-12T13:19:16;3.10;;;1.88;;
43883;SDS011;29544;52.018;5.810;2022-09-12T13:22:00;3.15;;;2.10;;
43883;SDS011;29544;52.018;5.810;2022-09-12T13:24:28;3.88;;;2.42;;
43883;SDS011;29544;52.018;5.810;2022-09-12T13:26:53;5.57;;;2.00;;
43883;SDS011;29544;52.018;5.810;2022-09-12T13:29:22;4.97;;;1.75;;
43883;SDS011;29544;52.018;5.810;2022-09-12T13:31:59;3.30;;;2.00;;
43883;SDS011;29544;52.018;5.810;2022-09-12T13:37:09;2.97;;;2.00;;
43883;SDS011;29544;52.018;5.810;2022-09-12T13:39:45;3.28;;;1.77;;
43883;SDS011;29544;52.018;5.810;2022-09-12T13:42:23;4.03;;;1.98;;
43883;SDS011;29544;52.018;5.810;2022-09-12T13:47:31;3.85;;;2.20;;
43883;SDS011;29544;52.018;5.810;2022-09-12T13:50:01;5.35;;;1.90;;
43883;SDS011;29544;52.018;5.810;2022-09-12T13:52:31;2.05;;;1.55;;
43883;SDS011;29544;52.018;5.810;2022-09-12T13:54:58;4.30;;;2.50;;
43883;SDS011;29544;52.018;5.810;2022-09-12T14:00:03;2.75;;;2.40;;
43883;SDS011;29544;52.018;5.810;2022-09-12T14:02:29;6.28;;;2.20;;
43883;SDS011;29544;52.018;5.810;2022-09-12T14:04:55;3.65;;;2.38;;
43883;SDS011;29544;52.018;5.810;2022-09-12T14:07:38;2.50;;;1.70;;
43883;SDS011;29544;52.018;5.810;2022-09-12T14:10:15;3.28;;;1.88;;
43883;SDS011;29544;52.018;5.810;2022-09-12T14:15:45;3.50;;;2.00;;
43883;SDS011;29544;52.018;5.810;2022-09-12T14:18:28;4.63;;;1.92;;
43883;SDS011;29544;52.018;5.810;2022-09-12T14:21:00;2.80;;;1.70;;
43883;SDS011;29544;52.018;5.810;2022-09-12T14:23:34;2.40;;;1.90;;
43883;SDS011;29544;52.018;5.810;2022-09-12T14:26:12;3.90;;;1.80;;
43883;SDS011;29544;52.018;5.810;2022-09-12T14:28:40;2.80;;;2.15;;
43883;SDS011;29544;52.018;5.810;2022-09-12T14:33:47;4.15;;;2.10;;
43883;SDS011;29544;52.018;5.810;2022-09-12T14:36:22;4.65;;;2.00;;
43883;SDS011;29544;52.018;5.810;2022-09-12T14:38:55;2.70;;;1.88;;
43883;SDS011;29544;52.018;5.810;2022-09-12T14:41:27;2.75;;;2.10;;
43883;SDS011;29544;52.018;5.810;2022-09-12T14:43:59;2.55;;;2.03;;
43883;SDS011;29544;52.018;5.810;2022-09-12T14:46:32;3.10;;;2.03;;
43883;SDS011;29544;52.018;5.810;2022-09-12T14:49:06;4.28;;;1.85;;
43883;SDS011;29544;52.018;5.810;2022-09-12T14:51:46;3.78;;;1.80;;
43883;SDS011;29544;52.018;5.810;2022-09-12T14:57:02;4.22;;;2.10;;
43883;SDS011;29544;52.018;5.810;2022-09-12T15:02:17;9.85;;;3.25;;
43883;SDS011;29544;52.018;5.810;2022-09-12T15:04:47;4.57;;;2.05;;
43883;SDS011;29544;52.018;5.810;2022-09-12T15:09:59;6.20;;;2.30;;
43883;SDS011;29544;52.018;5.810;2022-09-12T15:12:29;5.80;;;2.00;;
43883;SDS011;29544;52.018;5.810;2022-09-12T15:14:59;2.90;;;1.97;;
43883;SDS011;29544;52.018;5.810;2022-09-12T15:17:36;2.83;;;1.80;;
43883;SDS011;29544;52.018;5.810;2022-09-12T15:20:02;4.03;;;1.95;;
43883;SDS011;29544;52.018;5.810;2022-09-12T15:22:29;3.95;;;2.05;;
43883;SDS011;29544;52.018;5.810;2022-09-12T15:24:56;3.30;;;1.70;;
43883;SDS011;29544;52.018;5.810;2022-09-12T15:27:22;6.03;;;2.03;;
43883;SDS011;29544;52.018;5.810;2022-09-12T15:29:50;4.85;;;1.70;;
43883;SDS011;29544;52.018;5.810;2022-09-12T15:32:21;4.50;;;1.83;;
43883;SDS011;29544;52.018;5.810;2022-09-12T15:34:48;4.32;;;2.15;;
43883;SDS011;29544;52.018;5.810;2022-09-12T15:37:14;4.60;;;1.88;;
43883;SDS011;29544;52.018;5.810;2022-09-12T15:39:40;3.47;;;2.10;;
43883;SDS011;29544;52.018;5.810;2022-09-12T15:42:07;5.17;;;2.10;;
43883;SDS011;29544;52.018;5.810;2022-09-12T15:44:33;2.65;;;1.80;;
43883;SDS011;29544;52.018;5.810;2022-09-12T15:46:59;3.40;;;1.73;;
43883;SDS011;29544;52.018;5.810;2022-09-12T15:49:24;3.70;;;2.20;;
43883;SDS011;29544;52.018;5.810;2022-09-12T15:51:50;1.87;;;1.67;;
43883;SDS011;29544;52.018;5.810;2022-09-12T15:54:15;6.83;;;2.17;;
43883;SDS011;29544;52.018;5.810;2022-09-12T15:56:42;4.32;;;1.83;;
43883;SDS011;29544;52.018;5.810;2022-09-12T15:59:08;2.95;;;1.67;;
43883;SDS011;29544;52.018;5.810;2022-09-12T16:01:33;3.78;;;2.00;;
43883;SDS011;29544;52.018;5.810;2022-09-12T16:03:59;3.25;;;2.15;;
43883;SDS011;29544;52.018;5.810;2022-09-12T16:06:27;2.88;;;1.75;;
43883;SDS011;29544;52.018;5.810;2022-09-12T16:08:55;3.15;;;2.20;;
43883;SDS011;29544;52.018;5.810;2022-09-12T16:11:24;4.70;;;2.13;;
43883;SDS011;29544;52.018;5.810;2022-09-12T16:13:51;4.65;;;2.30;;
43883;SDS011;29544;52.018;5.810;2022-09-12T16:16:17;2.50;;;1.80;;
43883;SDS011;29544;52.018;5.810;2022-09-12T16:18:43;3.23;;;2.00;;
43883;SDS011;29544;52.018;5.810;2022-09-12T16:21:08;7.73;;;2.50;;
43883;SDS011;29544;52.018;5.810;2022-09-12T16:23:34;4.18;;;2.22;;
43883;SDS011;29544;52.018;5.810;2022-09-12T16:26:01;2.38;;;2.00;;
43883;SDS011;29544;52.018;5.810;2022-09-12T16:28:29;5.35;;;2.20;;
43883;SDS011;29544;52.018;5.810;2022-09-12T16:30:58;2.95;;;2.15;;
43883;SDS011;29544;52.018;5.810;2022-09-12T16:33:28;6.13;;;2.40;;
43883;SDS011;29544;52.018;5.810;2022-09-12T16:36:02;4.43;;;2.10;;
43883;SDS011;29544;52.018;5.810;2022-09-12T16:38:29;3.83;;;2.15;;
43883;SDS011;29544;52.018;5.810;2022-09-12T16:43:25;3.70;;;2.10;;
43883;SDS011;29544;52.018;5.810;2022-09-12T16:45:58;3.22;;;2.00;;
43883;SDS011;29544;52.018;5.810;2022-09-12T16:48:29;3.67;;;2.15;;
43883;SDS011;29544;52.018;5.810;2022-09-12T16:50:56;3.42;;;2.30;;
43883;SDS011;29544;52.018;5.810;2022-09-12T16:53:22;3.13;;;2.10;;
43883;SDS011;29544;52.018;5.810;2022-09-12T16:55:48;3.58;;;2.17;;
43883;SDS011;29544;52.018;5.810;2022-09-12T17:00:40;2.67;;;1.88;;
43883;SDS011;29544;52.018;5.810;2022-09-12T17:03:06;6.32;;;2.30;;
43883;SDS011;29544;52.018;5.810;2022-09-12T17:05:32;5.38;;;2.35;;
43883;SDS011;29544;52.018;5.810;2022-09-12T17:07:57;3.28;;;2.25;;
43883;SDS011;29544;52.018;5.810;2022-09-12T17:10:23;4.37;;;2.23;;
43883;SDS011;29544;52.018;5.810;2022-09-12T17:12:49;2.95;;;2.30;;
43883;SDS011;29544;52.018;5.810;2022-09-12T17:15:15;4.43;;;2.00;;
43883;SDS011;29544;52.018;5.810;2022-09-12T17:17:40;6.03;;;2.30;;
43883;SDS011;29544;52.018;5.810;2022-09-12T17:20:06;3.73;;;2.50;;
43883;SDS011;29544;52.018;5.810;2022-09-12T17:22:32;5.07;;;2.20;;